РПИ Москва

Московский район полётной информации (UUWV, УУВЖ) является одним из крупнейших РПИ в воздушном пространстве Российской Федерации в сети Vatsim.

РПИ объединяет в себя Московский Узловой Диспетчерский Район (МУДР), в состав которого входят такие крупнейшие аэропорты России, как ДомодедовоШереметьево и Внуково.

Помимо основного аэроузла МУДР в состав РПИ входят аэродромы городов Нижний Новгород, Белгород, Воронеж, Тверь, Курск, Брянск, Ярославль и другие.

Фотосценарий города Москва вы можете найти здесь:

FSX-P3D (платный)

X-Plane (платный); X-Plane (бесплатный) часть 1часть 2

Платные сценарии включают в себя аэропорты: UUBW Zhukovski, UUMO Ostafyevo, UUBM Myachkovo and UUMB Kubinka.

Руководитель РПИ

Ilya Pyankov

Инструкторы РПИ
Alexander Petrenko * (Controller)
Alexey Dobronravov (Instructor)
Anton Myglan (Senior Instructor)
Artem Smorchkov * (Controller)
Dmitry Markus (Instructor)
Ilya Pyankov (Instructor)
Ivan Skatov (Instructor)
Matvey Safyannikov (Instructor)
Maxim Tsygankov (Instructor)
Yulia Goryacheva (Instructor)
Входит в состав
ЗЦ Москва

Диспетчеры РПИ

Диспетчер Рейтинг Допуски *
Alexander Petrenko Controller UUWV_CTR
Alexey Dobronravov Instructor UUWV_CTR
Artem Smorchkov Controller UUWV_CTR
Dmitry Markus Instructor UUWV_CTR
George Kalandadze Controller UUWV_CTR
Ivan Skatov Instructor UUWV_CTR
Karim Garifullin Instructor UUWV_CTR
Masha Stanchenko Controller UUWV_CTR
Maxim Tsygankov Instructor UUWV_CTR
Robert Farber Controller UUWV_CTR
Sergey Kovalenko Controller UUWV_CTR
Yulia Goryacheva Instructor UUWV_CTR
Yury Koryagin Instructor UUWV_CTR
Aleksandr Lysenko Student UUWW_TWR*, UUWW_GND
Alex Sapuck Student UUDD_GND
Alexander Mikhin Student UUDD_GND, UUDD_TWR*
Anton Beshenov Student UUEE_N_GND, UUEE_S_GND
Artem Morozov Student 2 UUEE_N_TWR*, UUEE_S_GND, UUEE_S_TWR*, UUEE_N_GND
Artem Smychkov Instructor UUDD_APP, UUDD_DEP, UUDD_F_APP, UUEE_DEP, UUEE_F_APP, UUEE_APP, UUWW_DEP, UUWW_F_APP, UUWW_APP
Arteom Alexeev Student UUEE_S_GND, UUEE_N_GND
Bogdan Mavrodiev Student UUDD_GND
Daniil Voinov Senior Student MSK_APP(UUEE+UUDD+UUWW)
Danil Basharov Student 2 UUDD_APP*, UUDD_TWR, UUDD_DEP*, UUDD_F_APP*
Egor Goriachev Student UUEE_N_GND, UUEE_S_GND
Evgeniy Dedyaev Senior Student MSK_APP(UUWW+UUEE+UUDD)
Gleb Smolkov Student 2 UUEE_APP*, UUEE_DEP*, UUEE_F_APP*
Ignat Aligov Student UUWW_GND
Ivan Buev Senior Student MSK_APP(UUEE+UUWW+UUWW+UUDD+UUDD)
Kirill Kudryavtsev Student UUWW_GND
Kirill Ryabov Student 2 UUEE_F_APP*, UUEE_APP*, UUEE_DEP*
Mark Brenden Student UUDD_GND
Maxim Kalalenskiy Student UUWW_TWR*, UUWW_GND
Maxim Khromtsov Controller MSK_APP(UUEE+UUWW+UUDD)
Mikhail Kirillov Student UUEE_N_GND, UUEE_S_GND
Nick Smirnov Student 2 UUDD_F_APP*, UUDD_APP*, UUDD_DEP*, UUEE_S_TWR, UUEE_N_TWR, UUWW_TWR
Nikita Levin Student 2 UUEE_F_APP*, UUEE_APP*, UUEE_DEP*, UUWW_TWR
Pavel Sergienko Student 2 UUML_TWR
Petr Koreshkov Student UUEE_N_GND, UUEE_S_GND
Sergey Isaev Student 2 UUDD_DEP*, UUDD_F_APP*, UUDD_APP*, UUEE_S_TWR, UUEE_N_TWR
Stanley Yorke Controller UUWW_DEP, UUWW_F_APP, UUWW_APP
Vladimir Kon Student UUDD_GND
Vyacheslav Neklyudov Student 2 UUEE_S_TWR, MSK_APP(UUEE+UUWW+UUDD), UUEE_N_TWR
Yury Kompaniychenko Student 2 UUML_TWR!!!

Аэропорты РПИ

ICAO Город Название Погода
UUWW Москва Внуково UUWW 020100Z VRB01MPS CAVOK 11/04 Q1023 R24/000070 NOSIG
UUDD Москва Домодедово UUDD 020100Z 34003MPS CAVOK 11/05 Q1023 R32L/CLRD60 NOSIG
UUBW Москва Жуковский UUBW 020100Z 31002MPS CAVOK 12/07 Q1023 R30/010060 NOSIG
UUMU Москва Чкаловский
UUEE Москва Шереметьево UUEE 020100Z 31002MPS CAVOK 11/06 Q1023 R06C/CLRD62 NOSIG
UUOB Белгород Белгород UUOB 020100Z 34003MPS CAVOK 10/05 Q1020 R29/010070 NOSIG
UUBP Брянск Брянск UUBP 020100Z AUTO 33001MPS 9999 NCD 10/05 Q1023 RMK QFE749/0999
UUOO Воронеж Воронеж UUOO 020100Z 32004MPS CAVOK 08/05 Q1018 R30/010070 NOSIG RMK QFE750
UUBI Иваново Иваново
UUBC Калуга Калуга UUBC 020100Z AUTO 00000MPS 9999 // ///////// 06/05 Q1023 RMK QFE750/1000
UUOK Курск Курск UUOK 020100Z AUTO 02003MPS 9999 // ///////// 07/04 Q1021 RMK QFE747/0996
UUMO Москва Остафьево UUMO 020100Z 28001MPS CAVOK 08/06 Q1023 R25/CLRD60 NOSIG RMK QFE752/1002
UWGG Нижний Новгород Стригино UWGG 020100Z 00000MPS 9999 MIFG NSC 08/08 Q1019 R36R/090070 NOSIG
UUMW Ватулино Ватулино
UUML Воскресенск Северка
UUDL Ярославль Туношна UUDL 020100Z 00000MPS CAVOK 08/08 Q1022 R23/010060 NOSIG RMK QFE758